createdAt,value
2022-08-28T00:01:23.911Z,100679.28
2022-08-28T00:03:50.621Z,100689.25
2022-08-28T00:06:18.806Z,100689.25
2022-08-28T00:08:46.561Z,100693.09
2022-08-28T00:11:21.068Z,100687.56
2022-08-28T00:13:48.549Z,100680.34
2022-08-28T00:16:15.440Z,100683.00
2022-08-28T00:18:42.402Z,100680.47
2022-08-28T00:21:10.063Z,100680.34
2022-08-28T00:23:42.852Z,100676.47
2022-08-28T00:26:31.749Z,100677.31
2022-08-28T00:28:58.520Z,100670.97
2022-08-28T00:31:25.302Z,100676.94
2022-08-28T00:33:52.054Z,100666.97
2022-08-28T00:36:19.590Z,100668.50
2022-08-28T00:38:46.203Z,100665.84
2022-08-28T00:41:13.186Z,100674.28
2022-08-28T00:43:43.311Z,100678.44
2022-08-28T00:46:14.460Z,100669.88
2022-08-28T00:48:41.497Z,100668.88
2022-08-28T00:51:28.638Z,100661.94
2022-08-28T00:53:58.955Z,100661.56
2022-08-28T00:56:27.560Z,100663.22
2022-08-28T00:58:56.795Z,100660.59
2022-08-28T01:01:24.271Z,100659.75
2022-08-28T01:03:51.060Z,100665.69
2022-08-28T01:06:20.516Z,100665.69
2022-08-28T01:08:50.518Z,100664.03
2022-08-28T01:11:21.618Z,100663.91
2022-08-28T01:13:49.714Z,100663.22
2022-08-28T01:16:19.231Z,100661.94
2022-08-28T01:18:46.879Z,100669.41
2022-08-28T01:21:22.258Z,100667.06
2022-08-28T01:24:04.967Z,100663.06
2022-08-28T01:26:32.371Z,100661.28
2022-08-28T01:29:00.685Z,100661.09
2022-08-28T01:31:31.036Z,100655.84
2022-08-28T01:33:59.292Z,100666.81
2022-08-28T01:36:26.422Z,100664.59
2022-08-28T01:38:58.994Z,100662.78
2022-08-28T01:41:25.686Z,100673.06
2022-08-28T01:43:53.805Z,100667.69
2022-08-28T01:46:21.014Z,100657.03
2022-08-28T01:48:48.232Z,100662.03
2022-08-28T01:51:15.157Z,100670.19
2022-08-28T01:53:45.006Z,100667.53
2022-08-28T01:56:15.090Z,100677.72
2022-08-28T01:58:42.227Z,100670.22
2022-08-28T02:01:11.152Z,100661.78
2022-08-28T02:03:38.674Z,100659.84
2022-08-28T02:06:06.072Z,100661.91
2022-08-28T02:08:35.320Z,100659.97
2022-08-28T02:11:02.290Z,100657.78
2022-08-28T02:13:28.987Z,100653.22
2022-08-28T02:15:57.022Z,100658.75
2022-08-28T02:18:26.074Z,100659.47
2022-08-28T02:20:52.778Z,100660.59
2022-08-28T02:23:19.466Z,100658.78
2022-08-28T02:25:47.688Z,100656.13
2022-08-28T02:28:17.658Z,100662.25
2022-08-28T02:30:44.727Z,100665.56
2022-08-28T02:33:11.418Z,100653.38
2022-08-28T02:35:40.235Z,100652.97
2022-08-28T02:38:07.066Z,100650.78
2022-08-28T02:40:33.889Z,100659.75
2022-08-28T02:43:00.578Z,100652.53
2022-08-28T02:45:30.210Z,100648.09
2022-08-28T02:47:57.352Z,100659.06
2022-08-28T02:50:24.758Z,100657.09
2022-08-28T02:52:51.901Z,100649.88
2022-08-28T02:55:19.738Z,100652.06
2022-08-28T02:57:47.718Z,100658.88
2022-08-28T03:00:19.906Z,100662.06
2022-08-28T03:02:47.314Z,100654.41
2022-08-28T03:05:17.326Z,100659.25
2022-08-28T03:07:44.216Z,100658.25
2022-08-28T03:10:11.319Z,100659.78
2022-08-28T03:12:38.281Z,100658.75
2022-08-28T03:15:07.516Z,100654.69
2022-08-28T03:17:35.051Z,100655.09
2022-08-28T03:20:01.742Z,100660.22
2022-08-28T03:22:46.861Z,100653.13
2022-08-28T03:25:13.616Z,100660.47
2022-08-28T03:27:40.243Z,100650.50
2022-08-28T03:30:07.950Z,100653.69
2022-08-28T03:32:35.228Z,100648.53
2022-08-28T03:35:03.316Z,100648.84
2022-08-28T03:37:32.740Z,100643.72
2022-08-28T03:40:00.640Z,100641.50
2022-08-28T03:42:27.397Z,100633.25
2022-08-28T03:44:54.445Z,100636.97
2022-08-28T03:47:21.063Z,100639.50
2022-08-28T03:49:53.658Z,100640.84
2022-08-28T03:52:20.591Z,100636.41
2022-08-28T03:54:48.062Z,100635.72
2022-08-28T03:57:22.392Z,100643.03
2022-08-28T03:59:51.415Z,100645.81
2022-08-28T04:02:20.423Z,100638.06
2022-08-28T04:04:48.899Z,100641.50
2022-08-28T04:07:16.136Z,100633.59
2022-08-28T04:09:43.080Z,100634.06
2022-08-28T04:12:10.293Z,100631.59
2022-08-28T04:14:37.446Z,100627.41
2022-08-28T04:17:05.494Z,100642.06
2022-08-28T04:19:34.141Z,100629.47
2022-08-28T04:22:01.264Z,100633.38
2022-08-28T04:24:27.986Z,100639.03
2022-08-28T04:26:54.682Z,100638.75
2022-08-28T04:29:22.947Z,100630.44
2022-08-28T04:31:50.416Z,100642.53
2022-08-28T04:34:17.928Z,100646.66
2022-08-28T04:36:44.877Z,100644.31
2022-08-28T04:39:11.781Z,100639.19
2022-08-28T04:41:38.789Z,100651.94
2022-08-28T04:44:06.493Z,100650.09
2022-08-28T04:46:33.325Z,100646.25
2022-08-28T04:49:00.693Z,100652.75
2022-08-28T04:51:28.401Z,100648.59
2022-08-28T04:53:55.135Z,100647.41
2022-08-28T04:56:21.836Z,100652.50
2022-08-28T04:58:48.501Z,100655.03
2022-08-28T05:01:21.049Z,100656.06
2022-08-28T05:03:52.658Z,100648.84
2022-08-28T05:06:19.300Z,100656.75
2022-08-28T05:08:48.028Z,100661.34
2022-08-28T05:11:33.762Z,100658.13
2022-08-28T05:14:11.577Z,100655.19
2022-08-28T05:16:46.567Z,100658.59
2022-08-28T05:19:14.731Z,100651.13
2022-08-28T05:21:42.590Z,100649.94
2022-08-28T05:24:09.880Z,100645.63
2022-08-28T05:26:38.953Z,100662.75
2022-08-28T05:29:08.023Z,100656.78
2022-08-28T05:31:35.053Z,100655.00
2022-08-28T05:34:02.964Z,100651.75
2022-08-28T05:36:34.983Z,100648.44
2022-08-28T05:39:05.287Z,100651.13
2022-08-28T05:41:34.344Z,100649.84
2022-08-28T05:44:04.714Z,100652.44
2022-08-28T05:46:31.946Z,100645.84
2022-08-28T05:49:00.440Z,100643.66
2022-08-28T05:51:28.078Z,100654.00
2022-08-28T05:53:57.555Z,100640.28
2022-08-28T05:56:29.624Z,100649.03
2022-08-28T05:58:57.632Z,100643.16
2022-08-28T06:01:33.621Z,100644.81
2022-08-28T06:04:02.528Z,100649.13
2022-08-28T06:06:34.288Z,100645.34
2022-08-28T06:09:11.748Z,100652.19
2022-08-28T06:11:40.468Z,100650.25
2022-08-28T06:14:13.598Z,100644.44
2022-08-28T06:16:47.220Z,100655.00
2022-08-28T06:19:14.430Z,100647.78
2022-08-28T06:21:41.947Z,100661.03
2022-08-28T06:24:10.822Z,100643.28
2022-08-28T06:26:38.109Z,100647.31
2022-08-28T06:29:08.535Z,100649.38
2022-08-28T06:31:35.811Z,100652.47
2022-08-28T06:34:04.508Z,100652.19
2022-08-28T06:36:33.787Z,100660.53
2022-08-28T06:39:02.719Z,100662.19
2022-08-28T06:41:34.605Z,100669.44
2022-08-28T06:44:02.930Z,100662.06
2022-08-28T06:46:30.516Z,100670.41
2022-08-28T06:48:57.338Z,100670.19
2022-08-28T06:51:25.061Z,100676.63
2022-08-28T06:53:52.470Z,100673.66
2022-08-28T06:56:26.005Z,100679.56
2022-08-28T06:58:58.075Z,100671.16
2022-08-28T07:01:31.472Z,100670.09
2022-08-28T07:04:08.612Z,100674.28
2022-08-28T07:06:38.071Z,100669.81
2022-08-28T07:09:07.195Z,100679.84
2022-08-28T07:11:37.319Z,100672.66
2022-08-28T07:14:04.827Z,100688.16
2022-08-28T07:16:35.035Z,100683.88
2022-08-28T07:19:04.767Z,100685.53
2022-08-28T07:21:38.761Z,100690.69
2022-08-28T07:24:10.439Z,100693.16
2022-08-28T07:26:40.813Z,100701.56
2022-08-28T07:29:10.867Z,100697.47
2022-08-28T07:31:44.046Z,100686.53
2022-08-28T07:34:13.515Z,100699.53
2022-08-28T07:36:41.099Z,100694.34
2022-08-28T07:39:09.044Z,100702.63
2022-08-28T07:41:39.093Z,100705.19
2022-08-28T07:44:26.857Z,100704.34
2022-08-28T07:46:55.911Z,100713.78
2022-08-28T07:49:23.542Z,100716.84
2022-08-28T07:51:56.836Z,100715.38
2022-08-28T07:54:23.856Z,100719.50
2022-08-28T07:56:50.984Z,100716.53
2022-08-28T07:59:19.402Z,100716.22
2022-08-28T08:01:49.081Z,100706.34
2022-08-28T08:04:16.612Z,100717.28
2022-08-28T08:06:44.927Z,100706.03
2022-08-28T08:09:17.996Z,100714.81
2022-08-28T08:11:45.059Z,100717.16
2022-08-28T08:14:15.813Z,100711.09
2022-08-28T08:16:44.860Z,100708.72
2022-08-28T08:19:20.291Z,100720.91
2022-08-28T08:21:53.300Z,100717.38
2022-08-28T08:24:26.684Z,100718.03
2022-08-28T08:27:00.258Z,100725.06
2022-08-28T08:29:31.419Z,100721.72
2022-08-28T08:32:06.866Z,100717.13
2022-08-28T08:34:36.716Z,100719.59
2022-08-28T08:37:05.469Z,100725.03
2022-08-28T08:39:33.839Z,100717.75
2022-08-28T08:42:04.192Z,100730.31
2022-08-28T08:44:40.828Z,100729.44
2022-08-28T08:47:19.434Z,100726.00
2022-08-28T08:49:57.112Z,100726.00
2022-08-28T08:52:38.808Z,100725.25
2022-08-28T08:55:23.066Z,100733.97
2022-08-28T08:57:59.370Z,100728.34
2022-08-28T09:00:26.575Z,100726.50
2022-08-28T09:03:09.481Z,100737.44
2022-08-28T09:05:46.699Z,100744.06
2022-08-28T09:08:25.198Z,100733.06
2022-08-28T09:11:00.765Z,100736.84
2022-08-28T09:13:51.630Z,100730.91
2022-08-28T09:16:29.346Z,100736.41
2022-08-28T09:18:58.290Z,100738.75
2022-08-28T09:21:29.392Z,100736.94
2022-08-28T09:23:57.598Z,100740.66
2022-08-28T09:26:25.471Z,100742.13
2022-08-28T09:29:20.768Z,100742.63
2022-08-28T09:31:50.425Z,100746.03
2022-08-28T09:34:27.678Z,100745.75
2022-08-28T09:36:56.334Z,100748.56
2022-08-28T09:39:30.576Z,100744.22
2022-08-28T09:42:40.896Z,100747.94
2022-08-28T09:45:21.416Z,100754.41
2022-08-28T09:47:56.673Z,100750.69
2022-08-28T09:50:31.327Z,100749.53
2022-08-28T09:53:08.831Z,100745.63
2022-08-28T09:56:25.050Z,100748.56
2022-08-28T09:59:02.846Z,100742.16
2022-08-28T10:01:45.183Z,100744.19
2022-08-28T10:04:20.891Z,100743.28
2022-08-28T10:07:00.685Z,100749.53
2022-08-28T10:09:46.845Z,100748.19
2022-08-28T10:12:35.961Z,100746.88
2022-08-28T10:15:30.651Z,100752.88
2022-08-28T10:18:21.498Z,100746.72
2022-08-28T10:21:36.015Z,100749.34
2022-08-28T10:24:28.731Z,100747.59
2022-08-28T10:27:21.346Z,100748.38
2022-08-28T10:30:20.750Z,100745.06
2022-08-28T10:33:11.902Z,100741.00
2022-08-28T10:36:03.987Z,100740.59
2022-08-28T10:38:30.827Z,100747.06
2022-08-28T10:41:35.733Z,100744.13
2022-08-28T10:44:05.316Z,100738.59
2022-08-28T10:46:42.570Z,100730.31
2022-08-28T10:49:30.034Z,100734.75
2022-08-28T10:52:05.207Z,100739.06
2022-08-28T10:54:53.203Z,100739.31
2022-08-28T10:57:24.229Z,100753.84
2022-08-28T10:59:54.069Z,100751.06
2022-08-28T11:02:24.745Z,100746.56
2022-08-28T11:04:58.208Z,100752.66
2022-08-28T11:07:54.525Z,100759.78
2022-08-28T11:10:23.745Z,100742.81
2022-08-28T11:12:52.598Z,100754.88
2022-08-28T11:15:36.456Z,100752.31
2022-08-28T11:18:16.056Z,100755.31
2022-08-28T11:21:09.963Z,100760.00
2022-08-28T11:23:43.510Z,100753.88
2022-08-28T11:26:14.746Z,100758.41
2022-08-28T11:28:47.533Z,100755.25
2022-08-28T11:31:14.257Z,100760.00
2022-08-28T11:33:56.341Z,100764.13
2022-08-28T11:36:23.001Z,100761.66
2022-08-28T11:38:52.286Z,100760.91
2022-08-28T11:41:22.414Z,100754.94
2022-08-28T11:43:52.471Z,100763.22
2022-08-28T11:46:33.784Z,100759.16
2022-08-28T11:49:03.620Z,100762.28
2022-08-28T11:51:48.686Z,100767.06
2022-08-28T11:54:50.689Z,100763.38
2022-08-28T11:57:20.280Z,100758.03
2022-08-28T11:59:55.906Z,100755.00
2022-08-28T12:02:46.965Z,100771.25
2022-08-28T12:05:16.774Z,100765.41
2022-08-28T12:07:51.396Z,100759.63
2022-08-28T12:10:27.468Z,100766.28
2022-08-28T12:13:39.015Z,100759.59
2022-08-28T12:16:07.642Z,100760.31
2022-08-28T12:18:59.070Z,100756.22
2022-08-28T12:21:28.833Z,100777.13
2022-08-28T12:24:05.364Z,100760.94
2022-08-28T12:26:39.920Z,100762.41
2022-08-28T12:29:34.878Z,100770.13
2022-08-28T12:32:18.639Z,100770.44
2022-08-28T12:34:53.140Z,100773.56
2022-08-28T12:37:24.190Z,100782.50
2022-08-28T12:39:51.783Z,100768.09
2022-08-28T12:42:20.247Z,100777.06
2022-08-28T12:44:51.672Z,100780.94
2022-08-28T12:47:22.844Z,100764.81
2022-08-28T12:49:49.690Z,100776.09
2022-08-28T12:52:21.037Z,100770.34
2022-08-28T12:54:50.284Z,100766.19
2022-08-28T12:57:20.515Z,100779.53
2022-08-28T12:59:50.419Z,100758.34
2022-08-28T13:02:34.224Z,100756.38
2022-08-28T13:05:09.862Z,100765.47
2022-08-28T13:07:49.610Z,100756.06
2022-08-28T13:10:21.563Z,100760.53
2022-08-28T13:13:05.870Z,100739.06
2022-08-28T13:15:45.938Z,100750.75
2022-08-28T13:18:44.459Z,100756.72
2022-08-28T13:21:17.293Z,100758.09
2022-08-28T13:24:01.704Z,100760.81
2022-08-28T13:26:33.827Z,100758.50
2022-08-28T13:29:26.880Z,100749.38
2022-08-28T13:32:01.983Z,100736.78
2022-08-28T13:34:31.518Z,100754.56
2022-08-28T13:37:20.198Z,100732.69
2022-08-28T13:39:47.750Z,100735.03
2022-08-28T13:42:17.966Z,100726.75
2022-08-28T13:44:56.767Z,100745.16
2022-08-28T13:47:23.433Z,100735.50
2022-08-28T13:49:50.126Z,100753.63
2022-08-28T13:52:19.345Z,100734.19
2022-08-28T13:54:46.843Z,100739.25
2022-08-28T13:57:14.586Z,100739.78
2022-08-28T13:59:41.776Z,100748.59
2022-08-28T14:02:31.679Z,100743.63
2022-08-28T14:04:58.720Z,100752.19
2022-08-28T14:07:25.478Z,100740.00
2022-08-28T14:09:56.286Z,100743.28
2022-08-28T14:12:33.028Z,100742.00
2022-08-28T14:15:03.489Z,100748.97
2022-08-28T14:17:30.220Z,100740.34
2022-08-28T14:19:58.872Z,100735.03
2022-08-28T14:22:25.717Z,100736.22
2022-08-28T14:24:55.973Z,100736.38
2022-08-28T14:27:22.848Z,100738.00
2022-08-28T14:29:49.629Z,100730.66
2022-08-28T14:32:25.052Z,100718.13
2022-08-28T14:34:52.986Z,100730.75
2022-08-28T14:37:20.493Z,100736.59
2022-08-28T14:39:48.279Z,100732.34
2022-08-28T14:42:15.094Z,100728.28
2022-08-28T14:44:50.510Z,100732.56
2022-08-28T14:47:18.282Z,100730.56
2022-08-28T14:49:44.986Z,100723.63
2022-08-28T14:52:17.697Z,100721.47
2022-08-28T14:54:44.464Z,100732.25
2022-08-28T14:57:13.768Z,100725.75
2022-08-28T14:59:40.843Z,100718.66
2022-08-28T15:02:08.195Z,100717.28
2022-08-28T15:04:37.855Z,100716.81
2022-08-28T15:07:16.770Z,100715.66
2022-08-28T15:09:43.821Z,100721.41
2022-08-28T15:12:11.487Z,100712.31
2022-08-28T15:14:39.578Z,100714.00
2022-08-28T15:17:08.000Z,100712.03
2022-08-28T15:19:36.990Z,100712.03
2022-08-28T15:22:06.419Z,100712.50
2022-08-28T15:24:34.611Z,100712.47
2022-08-28T15:27:06.511Z,100714.66
2022-08-28T15:29:34.278Z,100712.16
2022-08-28T15:32:00.998Z,100713.19
2022-08-28T15:34:28.516Z,100713.81
2022-08-28T15:36:56.782Z,100716.50
2022-08-28T15:39:44.375Z,100719.47
2022-08-28T15:42:11.968Z,100714.34
2022-08-28T15:44:39.280Z,100720.16
2022-08-28T15:47:07.056Z,100717.16
2022-08-28T15:49:43.692Z,100718.97
2022-08-28T15:52:19.006Z,100724.25
2022-08-28T15:54:46.023Z,100720.94
2022-08-28T15:57:12.799Z,100724.09
2022-08-28T15:59:48.815Z,100721.78
2022-08-28T16:02:23.486Z,100735.63
2022-08-28T16:04:53.574Z,100731.28
2022-08-28T16:07:22.162Z,100739.88
2022-08-28T16:09:49.156Z,100746.75
2022-08-28T16:12:17.303Z,100740.50
2022-08-28T16:14:44.274Z,100729.94
2022-08-28T16:17:11.568Z,100738.00
2022-08-28T16:19:40.207Z,100735.53
2022-08-28T16:22:07.705Z,100739.66
2022-08-28T16:24:34.482Z,100742.88
2022-08-28T16:27:02.585Z,100727.44
2022-08-28T16:29:34.100Z,100719.34
2022-08-28T16:32:02.360Z,100725.50
2022-08-28T16:34:32.531Z,100725.69
2022-08-28T16:37:00.204Z,100732.78
2022-08-28T16:39:27.458Z,100730.44
2022-08-28T16:41:56.587Z,100724.75
2022-08-28T16:44:28.179Z,100737.50
2022-08-28T16:46:55.586Z,100737.25
2022-08-28T16:49:25.033Z,100741.13
2022-08-28T16:51:51.673Z,100741.13
2022-08-28T16:54:19.111Z,100739.66
2022-08-28T16:56:46.800Z,100742.00
2022-08-28T16:59:17.501Z,100750.72
2022-08-28T17:01:44.821Z,100754.41
2022-08-28T17:04:12.229Z,100756.19
2022-08-28T17:06:39.973Z,100754.03
2022-08-28T17:09:06.792Z,100758.56
2022-08-28T17:11:33.617Z,100754.47
2022-08-28T17:14:00.394Z,100750.03
2022-08-28T17:16:29.721Z,100754.47
2022-08-28T17:18:56.647Z,100747.91
2022-08-28T17:21:42.403Z,100741.16
2022-08-28T17:24:12.444Z,100747.50
2022-08-28T17:26:40.626Z,100753.69
2022-08-28T17:29:07.405Z,100750.00
2022-08-28T17:31:41.227Z,100744.09
2022-08-28T17:34:08.141Z,100745.47
2022-08-28T17:36:39.730Z,100752.47
2022-08-28T17:39:13.170Z,100743.63
2022-08-28T17:41:40.727Z,100744.09
2022-08-28T17:44:08.001Z,100747.56
2022-08-28T17:46:38.111Z,100747.22
2022-08-28T17:49:06.942Z,100757.59
2022-08-28T17:51:43.413Z,100749.59
2022-08-28T17:54:16.696Z,100749.00
2022-08-28T17:56:43.847Z,100747.56
2022-08-28T17:59:11.581Z,100753.91
2022-08-28T18:01:42.098Z,100748.25
2022-08-28T18:04:09.057Z,100752.78
2022-08-28T18:06:36.016Z,100746.91
2022-08-28T18:09:03.671Z,100747.56
2022-08-28T18:11:30.402Z,100750.66
2022-08-28T18:14:00.759Z,100752.03
2022-08-28T18:16:31.385Z,100753.81
2022-08-28T18:18:59.649Z,100748.72
2022-08-28T18:21:26.618Z,100743.25
2022-08-28T18:23:53.264Z,100744.91
2022-08-28T18:26:20.388Z,100750.06
2022-08-28T18:28:48.981Z,100752.03
2022-08-28T18:31:21.156Z,100751.66
2022-08-28T18:33:56.535Z,100758.75
2022-08-28T18:36:34.191Z,100760.53
2022-08-28T18:39:02.413Z,100762.06
2022-08-28T18:41:41.631Z,100749.22
2022-08-28T18:44:11.844Z,100758.75
2022-08-28T18:46:41.649Z,100766.50
2022-08-28T18:49:14.513Z,100770.13
2022-08-28T18:51:47.943Z,100761.50
2022-08-28T18:54:22.260Z,100765.00
2022-08-28T18:56:50.401Z,100771.09
2022-08-28T18:59:23.003Z,100770.28
2022-08-28T19:01:49.839Z,100769.59
2022-08-28T19:04:22.790Z,100762.19
2022-08-28T19:06:54.667Z,100766.38
2022-08-28T19:09:32.474Z,100765.59
2022-08-28T19:12:01.430Z,100764.53
2022-08-28T19:14:30.784Z,100761.84
2022-08-28T19:16:57.430Z,100763.47
2022-08-28T19:19:24.308Z,100769.53
2022-08-28T19:21:54.014Z,100758.50
2022-08-28T19:24:22.412Z,100769.22
2022-08-28T19:26:49.012Z,100767.00
2022-08-28T19:29:17.853Z,100772.47
2022-08-28T19:31:44.689Z,100768.28
2022-08-28T19:34:16.837Z,100757.44
2022-08-28T19:36:55.270Z,100762.84
2022-08-28T19:39:28.017Z,100754.91
2022-08-28T19:42:00.702Z,100756.44
2022-08-28T19:44:29.874Z,100756.63
2022-08-28T19:46:56.682Z,100766.97
2022-08-28T19:49:26.650Z,100759.84
2022-08-28T19:51:55.469Z,100760.25
2022-08-28T19:54:25.077Z,100762.00
2022-08-28T19:56:52.108Z,100759.19
2022-08-28T19:59:18.787Z,100769.53
2022-08-28T20:01:46.554Z,100761.22
2022-08-28T20:04:17.412Z,100756.31
2022-08-28T20:06:45.390Z,100755.78
2022-08-28T20:09:13.172Z,100756.25
2022-08-28T20:11:42.308Z,100753.34
2022-08-28T20:14:09.021Z,100754.25
2022-08-28T20:16:38.839Z,100762.56
2022-08-28T20:19:07.828Z,100757.44
2022-08-28T20:21:37.126Z,100767.84
2022-08-28T20:24:12.840Z,100758.50
2022-08-28T20:26:40.228Z,100752.41
2022-08-28T20:29:08.467Z,100756.81
2022-08-28T20:31:40.589Z,100765.22
2022-08-28T20:34:09.167Z,100760.16
2022-08-28T20:36:38.572Z,100758.88
2022-08-28T20:39:07.343Z,100757.81
2022-08-28T20:41:35.956Z,100765.25
2022-08-28T20:44:07.799Z,100770.13
2022-08-28T20:46:40.442Z,100759.69
2022-08-28T20:49:09.061Z,100766.38
2022-08-28T20:51:53.674Z,100771.22
2022-08-28T20:54:22.202Z,100778.72
2022-08-28T20:56:50.665Z,100795.22
2022-08-28T20:59:18.240Z,100793.13
2022-08-28T21:01:45.155Z,100793.56
2022-08-28T21:04:14.449Z,100803.53
2022-08-28T21:06:41.590Z,100802.16
2022-08-28T21:09:08.252Z,100800.91
2022-08-28T21:11:34.871Z,100807.50
2022-08-28T21:14:05.778Z,100810.84
2022-08-28T21:16:35.435Z,100803.84
2022-08-28T21:19:16.119Z,100814.81
2022-08-28T21:21:46.415Z,100819.50
2022-08-28T21:24:16.598Z,100826.56
2022-08-28T21:26:45.607Z,100826.69
2022-08-28T21:29:17.611Z,100828.00
2022-08-28T21:31:45.046Z,100828.84
2022-08-28T21:34:12.412Z,100826.56
2022-08-28T21:36:46.911Z,100825.59
2022-08-28T21:39:17.408Z,100825.19
2022-08-28T21:41:44.052Z,100823.06
2022-08-28T21:44:10.991Z,100826.94
2022-08-28T21:46:37.899Z,100812.06
2022-08-28T21:49:04.895Z,100808.84
2022-08-28T21:51:33.639Z,100820.38
2022-08-28T21:54:00.288Z,100813.75
2022-08-28T21:56:27.828Z,100812.19
2022-08-28T21:58:55.804Z,100804.25
2022-08-28T22:01:26.514Z,100803.44
2022-08-28T22:03:55.037Z,100804.72
2022-08-28T22:06:23.779Z,100799.28
2022-08-28T22:08:54.639Z,100801.63
2022-08-28T22:11:25.575Z,100798.47
2022-08-28T22:13:54.643Z,100794.84
2022-08-28T22:16:21.952Z,100794.25
2022-08-28T22:18:48.669Z,100786.03
2022-08-28T22:21:35.937Z,100790.03
2022-08-28T22:24:03.039Z,100793.34
2022-08-28T22:26:29.807Z,100781.03
2022-08-28T22:28:57.422Z,100803.84
2022-08-28T22:31:25.123Z,100790.72
2022-08-28T22:33:52.272Z,100792.56
2022-08-28T22:36:20.225Z,100788.31
2022-08-28T22:38:53.237Z,100800.53
2022-08-28T22:41:20.594Z,100803.81
2022-08-28T22:43:51.057Z,100797.97
2022-08-28T22:46:18.919Z,100800.25
2022-08-28T22:48:46.049Z,100796.63
2022-08-28T22:51:15.121Z,100800.66
2022-08-28T22:53:43.664Z,100802.66
2022-08-28T22:56:11.711Z,100799.91
2022-08-28T22:58:41.326Z,100802.41
2022-08-28T23:01:12.919Z,100804.91
2022-08-28T23:03:41.312Z,100805.75
2022-08-28T23:06:08.209Z,100810.56
2022-08-28T23:08:35.285Z,100805.97
2022-08-28T23:11:02.484Z,100808.03
2022-08-28T23:13:31.135Z,100800.34
2022-08-28T23:15:58.212Z,100803.28
2022-08-28T23:18:27.715Z,100796.44
2022-08-28T23:20:55.227Z,100808.38
2022-08-28T23:23:23.409Z,100811.59
2022-08-28T23:25:50.566Z,100812.75
2022-08-28T23:28:17.994Z,100808.34
2022-08-28T23:30:48.608Z,100814.41
2022-08-28T23:33:23.698Z,100823.63
2022-08-28T23:35:52.083Z,100820.25
2022-08-28T23:38:18.819Z,100817.31
2022-08-28T23:40:46.265Z,100817.03
2022-08-28T23:43:12.927Z,100817.16
2022-08-28T23:45:42.122Z,100813.56
2022-08-28T23:48:09.646Z,100817.72
2022-08-28T23:50:40.813Z,100818.16
2022-08-28T23:53:08.678Z,100821.81
2022-08-28T23:55:36.776Z,100818.94
2022-08-28T23:58:04.050Z,100816.41
